Impacts METAR Board
IDs:

KVRB - Vero Beach Muni, FL, US

Updated at: 2200 UTC 30 Jun 2022
Potential Impact None Slight Moderate High
Time 30/10Z 30/11Z 30/12Z 30/13Z 30/14Z 30/15Z 30/16Z 30/17Z 30/18Z 30/19Z 30/20Z 30/21Z 30/22Z
Temp77 77 79 82 83 87 80 82 81 84 87 87 87
Dewpt76 77 77 77 77 77 71 74 78 78 76 76 76
Altim30.11 30.12 30.13 30.14 30.15 30.15 30.15 30.14 30.13 30.12 30.09 30.09 30.09
VIS10 10 10 10 10 10 10 10 10 10 10 10 10
CIG-- -- -- -- -- -- 35 -- -- -- -- -- --
CoverCLRCLRCLRFEWSCTSCTBKNFEWSCTFEWCLRSCTFEW
FltCatVFRVFRVFRVFRVFRVFRVFRVFRVFRVFRVFRVFRVFR
WX------------TSTS----------
WDir18020019002502908070160110140130140
WSpd3 3 3 0 4 6 5 8 6 7 13 14 14
WGst-- -- -- -- -- -- -- -- -- -- -- -- --
Raw hourly METARs
KVRB 300953Z AUTO 18003KT 10SM CLR 25/24 A3011 RMK AO2 LTG DSNT NE SLP196 T02500244
KVRB 301053Z AUTO 20003KT 10SM CLR 25/25 A3012 RMK AO2 LTG DSNT E SLP198 T02500250
KVRB 301153Z 19003KT 10SM CLR 26/25 A3013 RMK AO2 SLP203 T02610250 10261 20239 53008
KVRB 301253Z COR 00000KT 10SM FEW014 28/25 A3014 RMK AO2 LTG DSNT NE SLP205 T02780250
KVRB 301353Z COR 25004KT 10SM SCT016 28/25 A3015 RMK AO2 SLP208 T02830250
KVRB 301453Z 29006KT 10SM SCT016 31/25 A3015 RMK AO2 SLP207 T03060250 50004
KVRB 301553Z 08005KT 10SM TS FEW024 SCT030 BKN035 27/22 A3015 RMK AO2 TSB23 SLP208 T02670217
KVRB 301653Z 07008KT 10SM TS FEW033 FEW110 28/23 A3014 RMK AO2 LTG DSNT N AND S RAB13E23 TSE22B32 SLP205 P0000 T02780233
KVRB 301753Z 16006KT 10SM FEW035 SCT100 27/26 A3013 RMK AO2 LTG DSNT S RAB15E43 TSE13 SLP203 P0002 60002 T02720256 10311 20256 56005
KVRB 301853Z 11007KT 10SM FEW020 29/26 A3012 RMK AO2 LTG DSNT S SLP198 T02890256
KVRB 301953Z 14013KT 10SM CLR 31/24 A3009 RMK AO2 LTG DSNT NW SLP188 T03060244
KVRB 302053Z 13014KT 10SM SCT024 31/24 A3009 RMK AO2 LTG DSNT NW SLP188 T03060244 56015
KVRB 302153Z 14014KT 10SM FEW024 31/24 A3009 RMK AO2 LTG DSNT S AND NW SLP187 T03060244



Page loaded:  22:48 UTC  |   03:48 PM Pacific  |   04:48 PM Mountain  |   05:48 PM Central  |   06:48 PM Eastern

 

ADVISORIES

FORECASTS

FORECASTS

OBSERVATIONS

USER TOOLS

ABOUT US